createdAt,value
2018-08-12T00:01:27.662Z,101900.78
2018-08-12T00:03:55.279Z,101902.13
2018-08-12T00:06:23.504Z,101903.92
2018-08-12T00:08:51.424Z,101904.36
2018-08-12T00:11:19.197Z,101902.19
2018-08-12T00:13:46.849Z,101900.43
2018-08-12T00:16:14.545Z,101893.42
2018-08-12T00:18:42.191Z,101896.06
2018-08-12T00:21:09.855Z,101898.30
2018-08-12T00:23:37.654Z,101893.42
2018-08-12T00:26:05.316Z,101885.13
2018-08-12T00:28:33.262Z,101889.52
2018-08-12T00:31:01.242Z,101888.20
2018-08-12T00:33:29.174Z,101880.75
2018-08-12T00:35:57.294Z,101881.20
2018-08-12T00:38:24.940Z,101884.27
2018-08-12T00:40:52.667Z,101882.55
2018-08-12T00:43:20.348Z,101886.98
2018-08-12T00:45:48.066Z,101881.22
2018-08-12T00:48:15.759Z,101874.66
2018-08-12T00:50:44.005Z,101873.33
2018-08-12T00:53:11.668Z,101868.13
2018-08-12T00:55:39.582Z,101865.92
2018-08-12T00:58:07.292Z,101869.91
2018-08-12T01:00:35.003Z,101867.30
2018-08-12T01:03:02.713Z,101865.98
2018-08-12T01:05:30.628Z,101870.85
2018-08-12T01:07:58.537Z,101870.85
2018-08-12T01:10:26.221Z,101870.03
2018-08-12T01:12:53.897Z,101867.39
2018-08-12T01:15:21.979Z,101863.44
2018-08-12T01:17:49.632Z,101855.98
2018-08-12T01:20:23.241Z,101859.03
2018-08-12T01:22:51.600Z,101866.14
2018-08-12T01:25:19.536Z,101866.55
2018-08-12T01:27:47.216Z,101863.50
2018-08-12T01:30:16.873Z,101871.83
2018-08-12T01:32:45.461Z,101866.95
2018-08-12T01:35:13.847Z,101873.14
2018-08-12T01:37:42.351Z,101867.05
2018-08-12T01:40:11.664Z,101870.56
2018-08-12T01:42:40.262Z,101870.16
2018-08-12T01:45:09.220Z,101870.56
2018-08-12T01:47:36.875Z,101869.31
2018-08-12T01:50:05.544Z,101870.16
2018-08-12T01:52:33.370Z,101870.16
2018-08-12T01:55:01.029Z,101875.47
2018-08-12T01:57:28.689Z,101869.34
2018-08-12T01:59:56.689Z,101865.81
2018-08-12T02:02:25.241Z,101858.41
2018-08-12T02:04:52.897Z,101862.36
2018-08-12T02:07:21.184Z,101867.17
2018-08-12T02:09:48.813Z,101865.44
2018-08-12T02:12:16.722Z,101862.39
2018-08-12T02:14:44.850Z,101857.58
2018-08-12T02:17:12.557Z,101855.85
2018-08-12T02:19:40.860Z,101769.37
2018-08-12T02:22:09.318Z,101846.21
2018-08-12T02:24:37.581Z,101847.97
2018-08-12T02:27:05.256Z,101847.55
2018-08-12T02:29:33.516Z,101840.08
2018-08-12T02:32:01.237Z,101840.55
2018-08-12T02:34:28.944Z,101836.22
2018-08-12T02:36:56.889Z,101835.33
2018-08-12T02:39:25.145Z,101836.66
2018-08-12T02:41:53.083Z,101832.69
2018-08-12T02:44:21.324Z,101832.25
2018-08-12T02:46:49.654Z,101827.44
2018-08-12T02:49:17.718Z,101828.33
2018-08-12T02:51:45.377Z,101825.72
2018-08-12T02:54:13.039Z,101824.39
2018-08-12T02:56:41.041Z,101820.91
2018-08-12T02:59:08.977Z,101823.11
2018-08-12T03:01:37.095Z,101825.75
2018-08-12T03:04:05.038Z,101820.47
2018-08-12T03:06:32.707Z,101824.90
2018-08-12T03:09:00.373Z,101803.19
2018-08-12T03:11:28.337Z,101818.36
2018-08-12T03:13:56.294Z,101816.13
2018-08-12T03:16:23.968Z,101818.77
2018-08-12T03:18:51.718Z,101816.60
2018-08-12T03:21:19.697Z,101815.72
2018-08-12T03:23:47.330Z,101815.75
2018-08-12T03:26:14.994Z,101814.00
2018-08-12T03:28:42.650Z,101811.36
2018-08-12T03:31:10.385Z,101808.28
2018-08-12T03:33:38.094Z,101812.23
2018-08-12T03:36:05.791Z,101803.91
2018-08-12T03:38:33.521Z,101798.66
2018-08-12T03:41:01.205Z,101801.74
2018-08-12T03:43:28.877Z,101801.36
2018-08-12T03:45:56.550Z,101800.89
2018-08-12T03:48:24.176Z,101800.89
2018-08-12T03:50:52.473Z,101800.92
2018-08-12T03:53:20.150Z,101801.36
2018-08-12T03:55:48.383Z,101798.26
2018-08-12T03:58:16.095Z,101794.77
2018-08-12T04:00:43.737Z,101797.84
2018-08-12T04:03:11.477Z,101803.53
2018-08-12T04:05:39.669Z,101801.80
2018-08-12T04:08:07.613Z,101800.08
2018-08-12T04:10:35.239Z,101802.27
2018-08-12T04:13:03.138Z,101801.42
2018-08-12T04:15:30.784Z,101802.27
2018-08-12T04:17:59.125Z,101800.08
2018-08-12T04:20:26.780Z,101804.03
2018-08-12T04:22:54.409Z,101803.59
2018-08-12T04:25:22.082Z,101801.83
2018-08-12T04:27:50.631Z,101793.54
2018-08-12T04:30:18.344Z,101799.22
2018-08-12T04:32:46.269Z,101799.64
2018-08-12T04:35:14.031Z,101802.27
2018-08-12T04:37:42.306Z,101795.27
2018-08-12T04:40:10.062Z,101801.86
2018-08-12T04:42:37.810Z,101798.38
2018-08-12T04:45:05.620Z,101802.77
2018-08-12T04:47:33.339Z,101801.02
2018-08-12T04:50:01.007Z,101801.05
2018-08-12T04:52:28.663Z,101806.30
2018-08-12T04:54:57.281Z,101801.86
2018-08-12T04:57:24.923Z,101801.42
2018-08-12T04:59:52.658Z,101808.02
2018-08-12T05:02:20.997Z,101803.59
2018-08-12T05:04:48.929Z,101802.74
2018-08-12T05:07:16.936Z,101796.13
2018-08-12T05:09:44.625Z,101797.84
2018-08-12T05:12:12.280Z,101794.36
2018-08-12T05:14:39.994Z,101798.76
2018-08-12T05:17:07.969Z,101798.76
2018-08-12T05:19:35.661Z,101798.73
2018-08-12T05:22:03.318Z,101797.34
2018-08-12T05:24:31.009Z,101799.92
2018-08-12T05:26:58.677Z,101796.37
2018-08-12T05:29:26.412Z,101795.91
2018-08-12T05:31:54.106Z,101799.36
2018-08-12T05:34:21.748Z,101794.96
2018-08-12T05:36:49.426Z,101794.05
2018-08-12T05:39:17.129Z,101788.34
2018-08-12T05:41:44.819Z,101790.47
2018-08-12T05:44:12.704Z,101782.96
2018-08-12T05:46:40.728Z,101779.01
2018-08-12T05:49:08.407Z,101776.37
2018-08-12T05:51:36.190Z,101778.97
2018-08-12T05:54:03.773Z,101780.23
2018-08-12T05:56:31.441Z,101770.08
2018-08-12T05:58:59.480Z,101777.59
2018-08-12T06:01:27.163Z,101780.23
2018-08-12T06:03:55.176Z,101775.36
2018-08-12T06:06:22.794Z,101771.34
2018-08-12T06:08:50.761Z,101769.98
2018-08-12T06:11:18.545Z,101774.73
2018-08-12T06:13:46.789Z,101770.77
2018-08-12T06:16:14.484Z,101764.58
2018-08-12T06:18:42.152Z,101760.17
2018-08-12T06:21:10.088Z,101759.20
2018-08-12T06:23:37.847Z,101758.31
2018-08-12T06:26:05.667Z,101757.03
2018-08-12T06:28:33.470Z,101751.38
2018-08-12T06:31:01.368Z,101747.01
2018-08-12T06:33:29.003Z,101759.30
2018-08-12T06:35:56.712Z,101754.89
2018-08-12T06:38:24.390Z,101752.70
2018-08-12T06:40:52.093Z,101759.23
2018-08-12T06:43:19.785Z,101748.20
2018-08-12T06:45:47.479Z,101748.64
2018-08-12T06:48:15.218Z,101750.36
2018-08-12T06:50:42.972Z,101744.58
2018-08-12T06:53:10.717Z,101747.66
2018-08-12T06:55:38.998Z,101742.78
2018-08-12T06:58:06.693Z,101750.20
2018-08-12T07:00:34.417Z,101742.23
2018-08-12T07:03:02.080Z,101748.81
2018-08-12T07:05:29.788Z,101665.88
2018-08-12T07:07:58.090Z,101740.38
2018-08-12T07:10:26.087Z,101744.74
2018-08-12T07:12:53.822Z,101739.83
2018-08-12T07:15:21.507Z,101738.48
2018-08-12T07:17:49.198Z,101729.23
2018-08-12T07:20:16.937Z,101735.73
2018-08-12T07:22:44.628Z,101734.75
2018-08-12T07:25:14.060Z,101729.39
2018-08-12T07:27:42.653Z,101736.30
2018-08-12T07:30:13.009Z,101732.20
2018-08-12T07:32:40.721Z,101728.56
2018-08-12T07:35:09.418Z,101729.81
2018-08-12T07:37:37.375Z,101727.94
2018-08-12T07:40:07.753Z,101728.71
2018-08-12T07:42:35.517Z,101727.39
2018-08-12T07:45:03.452Z,101723.42
2018-08-12T07:47:31.140Z,101720.78
2018-08-12T07:49:58.831Z,101720.02
2018-08-12T07:52:26.874Z,101722.29
2018-08-12T07:54:54.523Z,101588.45
2018-08-12T07:57:22.218Z,101716.64
2018-08-12T07:59:49.919Z,101715.72
2018-08-12T08:02:17.584Z,101715.28
2018-08-12T08:04:45.379Z,101720.56
2018-08-12T08:07:13.361Z,101712.60
2018-08-12T08:09:41.354Z,101708.53
2018-08-12T08:12:09.367Z,101709.37
2018-08-12T08:14:37.118Z,101705.19
2018-08-12T08:17:05.430Z,101703.71
2018-08-12T08:19:33.491Z,101706.28
2018-08-12T08:22:01.191Z,101708.52
2018-08-12T08:24:28.805Z,101705.44
2018-08-12T08:26:56.464Z,101708.44
2018-08-12T08:29:24.195Z,101703.55
2018-08-12T08:31:52.422Z,101692.95
2018-08-12T08:34:20.161Z,101702.16
2018-08-12T08:36:47.861Z,101698.59
2018-08-12T08:39:15.528Z,101701.20
2018-08-12T08:41:43.661Z,101700.73
2018-08-12T08:44:11.681Z,101694.12
2018-08-12T08:46:39.821Z,101696.31
2018-08-12T08:49:07.553Z,101693.20
2018-08-12T08:51:35.519Z,101687.98
2018-08-12T08:54:03.505Z,101689.67
2018-08-12T08:56:31.192Z,101681.63
2018-08-12T08:58:58.863Z,101686.39
2018-08-12T09:01:27.655Z,101682.75
2018-08-12T09:03:55.637Z,101681.75
2018-08-12T09:06:23.363Z,101678.54
2018-08-12T09:08:51.882Z,101678.81
2018-08-12T09:11:19.671Z,101672.13
2018-08-12T09:13:47.466Z,101670.28
2018-08-12T09:16:15.148Z,101667.03
2018-08-12T09:18:43.195Z,101668.63
2018-08-12T09:21:10.884Z,101665.38
2018-08-12T09:23:38.619Z,101664.80
2018-08-12T09:26:06.301Z,101659.42
2018-08-12T09:28:34.063Z,101655.86
2018-08-12T09:31:01.769Z,101657.89
2018-08-12T09:33:29.818Z,101654.40
2018-08-12T09:35:57.497Z,101648.63
2018-08-12T09:38:25.448Z,101655.64
2018-08-12T09:40:53.132Z,101655.56
2018-08-12T09:43:20.865Z,101656.84
2018-08-12T09:45:48.814Z,101659.03
2018-08-12T09:48:16.610Z,101661.16
2018-08-12T09:50:44.681Z,101660.76
2018-08-12T09:53:12.353Z,101656.84
2018-08-12T09:55:40.065Z,101655.56
2018-08-12T09:58:07.795Z,101658.29
2018-08-12T10:00:39.098Z,101666.75
2018-08-12T10:03:08.019Z,101665.12
2018-08-12T10:05:36.024Z,101660.75
2018-08-12T10:08:04.079Z,101655.90
2018-08-12T10:10:31.765Z,101662.56
2018-08-12T10:12:59.599Z,101656.06
2018-08-12T10:15:27.386Z,101660.52
2018-08-12T10:17:57.093Z,101665.06
2018-08-12T10:20:24.885Z,101663.52
2018-08-12T10:22:53.045Z,101658.42
2018-08-12T10:25:21.022Z,101653.22
2018-08-12T10:27:49.430Z,101649.38
2018-08-12T10:30:17.159Z,101649.86
2018-08-12T10:32:45.002Z,101644.98
2018-08-12T10:35:14.041Z,101637.00
2018-08-12T10:37:42.524Z,101629.73
2018-08-12T10:40:12.959Z,101621.55
2018-08-12T10:42:40.783Z,101616.05
2018-08-12T10:45:09.976Z,101609.78
2018-08-12T10:47:38.551Z,101612.78
2018-08-12T10:50:09.170Z,101620.19
2018-08-12T10:52:37.111Z,101614.10
2018-08-12T10:55:05.250Z,101623.05
2018-08-12T10:57:33.599Z,101613.89
2018-08-12T11:00:01.794Z,101612.26
2018-08-12T11:02:29.562Z,101611.45
2018-08-12T11:04:57.458Z,101602.95
2018-08-12T11:07:25.413Z,101594.41
2018-08-12T11:09:53.494Z,101601.62
2018-08-12T11:12:21.306Z,101602.73
2018-08-12T11:14:49.288Z,101586.06
2018-08-12T11:17:17.279Z,101589.81
2018-08-12T11:19:45.001Z,101589.33
2018-08-12T11:22:12.747Z,101591.05
2018-08-12T11:24:40.464Z,101583.11
2018-08-12T11:27:08.250Z,101588.45
2018-08-12T11:29:36.353Z,101584.57
2018-08-12T11:32:04.337Z,101590.91
2018-08-12T11:34:32.057Z,101584.84
2018-08-12T11:37:00.022Z,101595.11
2018-08-12T11:39:28.218Z,101590.83
2018-08-12T11:41:55.893Z,101593.52
2018-08-12T11:44:23.600Z,101586.91
2018-08-12T11:46:51.289Z,101588.28
2018-08-12T11:49:19.403Z,101578.59
2018-08-12T11:51:47.415Z,101576.86
2018-08-12T11:54:15.313Z,101573.42
2018-08-12T11:56:43.063Z,101564.78
2018-08-12T11:59:10.765Z,101556.94
2018-08-12T12:01:39.470Z,101549.92
2018-08-12T12:04:07.390Z,101556.02
2018-08-12T12:06:35.166Z,101556.41
2018-08-12T12:09:03.337Z,101552.45
2018-08-12T12:11:31.017Z,101551.95
2018-08-12T12:13:58.704Z,101541.78
2018-08-12T12:16:26.393Z,101539.00
2018-08-12T12:18:54.141Z,101542.88
2018-08-12T12:21:21.857Z,101544.16
2018-08-12T12:23:49.959Z,101533.36
2018-08-12T12:26:17.618Z,101531.60
2018-08-12T12:28:45.361Z,101534.81
2018-08-12T12:31:13.377Z,101534.95
2018-08-12T12:33:41.363Z,101532.44
2018-08-12T12:36:09.094Z,101532.48
2018-08-12T12:38:37.083Z,101533.84
2018-08-12T12:41:05.085Z,101534.59
2018-08-12T12:43:33.036Z,101527.50
2018-08-12T12:46:00.733Z,101521.86
2018-08-12T12:48:28.795Z,101522.75
2018-08-12T12:50:56.482Z,101521.91
2018-08-12T12:53:24.763Z,101523.22
2018-08-12T12:55:53.070Z,101514.02
2018-08-12T12:58:20.761Z,101503.00
2018-08-12T13:00:48.729Z,101502.47
2018-08-12T13:03:16.696Z,101490.44
2018-08-12T13:05:44.438Z,101483.16
2018-08-12T13:08:12.204Z,101475.73
2018-08-12T13:10:40.208Z,101478.53
2018-08-12T13:13:07.880Z,101471.30
2018-08-12T13:15:35.606Z,101472.39
2018-08-12T13:18:03.628Z,101466.30
2018-08-12T13:20:31.545Z,101465.13
2018-08-12T13:22:59.204Z,101464.69
2018-08-12T13:25:27.017Z,101455.92
2018-08-12T13:27:54.714Z,101452.92
2018-08-12T13:30:22.575Z,101452.62
2018-08-12T13:32:50.777Z,101454.13
2018-08-12T13:35:18.504Z,101449.38
2018-08-12T13:37:46.282Z,101446.31
2018-08-12T13:40:15.647Z,101455.55
2018-08-12T13:42:44.522Z,101447.12
2018-08-12T13:45:12.941Z,101444.83
2018-08-12T13:47:41.874Z,101445.27
2018-08-12T13:50:18.949Z,101435.72
2018-08-12T13:52:47.473Z,101435.33
2018-08-12T13:55:15.725Z,101437.18
2018-08-12T13:57:43.722Z,101442.52
2018-08-12T14:00:14.712Z,101437.33
2018-08-12T14:02:42.926Z,101427.27
2018-08-12T14:05:11.906Z,101427.77
2018-08-12T14:07:39.897Z,101416.40
2018-08-12T14:10:09.790Z,101414.64
2018-08-12T14:12:37.713Z,101409.44
2018-08-12T14:15:08.658Z,101401.95
2018-08-12T14:17:36.305Z,101394.95
2018-08-12T14:20:04.585Z,101384.81
2018-08-12T14:22:32.472Z,101377.33
2018-08-12T14:25:00.529Z,101381.20
2018-08-12T14:27:28.701Z,101374.14
2018-08-12T14:29:56.459Z,101366.03
2018-08-12T14:32:24.345Z,101368.87
2018-08-12T14:34:52.152Z,101361.66
2018-08-12T14:37:19.895Z,101354.95
2018-08-12T14:39:47.666Z,101349.61
2018-08-12T14:42:15.360Z,101343.84
2018-08-12T14:44:43.190Z,101343.73
2018-08-12T14:47:10.869Z,101341.87
2018-08-12T14:49:38.610Z,101339.52
2018-08-12T14:52:06.835Z,101338.92
2018-08-12T14:54:34.561Z,101338.91
2018-08-12T14:57:02.216Z,101335.80
2018-08-12T14:59:30.170Z,101334.91
2018-08-12T15:01:57.867Z,101331.56
2018-08-12T15:04:25.625Z,101323.51
2018-08-12T15:06:53.344Z,101328.80
2018-08-12T15:09:21.378Z,101313.42
2018-08-12T15:11:49.100Z,101310.78
2018-08-12T15:14:16.819Z,101306.30
2018-08-12T15:16:44.497Z,101308.13
2018-08-12T15:19:12.207Z,101299.52
2018-08-12T15:21:39.916Z,101296.25
2018-08-12T15:24:07.591Z,101292.59
2018-08-12T15:26:35.284Z,101295.34
2018-08-12T15:29:03.220Z,101287.94
2018-08-12T15:31:30.971Z,101285.80
2018-08-12T15:33:58.693Z,101277.52
2018-08-12T15:36:26.449Z,101280.65
2018-08-12T15:38:54.294Z,101278.50
2018-08-12T15:41:22.163Z,101274.42
2018-08-12T15:43:50.128Z,101265.89
2018-08-12T15:46:18.086Z,101260.83
2018-08-12T15:48:46.089Z,101265.58
2018-08-12T15:51:13.958Z,101259.45
2018-08-12T15:53:42.013Z,101256.75
2018-08-12T15:56:10.012Z,101249.09
2018-08-12T15:58:38.341Z,101247.67
2018-08-12T16:01:06.339Z,101244.97
2018-08-12T16:03:35.640Z,101238.52
2018-08-12T16:06:03.285Z,101245.27
2018-08-12T16:08:31.507Z,101237.13
2018-08-12T16:10:59.569Z,101233.99
2018-08-12T16:13:27.479Z,101238.89
2018-08-12T16:15:55.816Z,101230.25
2018-08-12T16:18:23.493Z,101231.78
2018-08-12T16:20:51.161Z,101229.64
2018-08-12T16:23:19.177Z,101222.64
2018-08-12T16:25:47.089Z,101219.06
2018-08-12T16:28:15.063Z,101214.70
2018-08-12T16:30:42.745Z,101218.78
2018-08-12T16:33:10.823Z,101218.11
2018-08-12T16:35:38.658Z,101211.28
2018-08-12T16:38:06.311Z,101208.30
2018-08-12T16:40:34.402Z,101204.80
2018-08-12T16:43:02.457Z,101207.36
2018-08-12T16:45:30.130Z,101205.42
2018-08-12T16:47:58.228Z,101199.53
2018-08-12T16:50:26.298Z,101198.98
2018-08-12T16:52:54.048Z,101196.77
2018-08-12T16:55:21.840Z,101196.28
2018-08-12T16:57:49.514Z,101191.38
2018-08-12T17:00:19.040Z,101185.52
2018-08-12T17:02:47.355Z,101189.94
2018-08-12T17:05:20.354Z,101178.96
2018-08-12T17:07:48.506Z,101183.38
2018-08-12T17:10:17.323Z,101180.01
2018-08-12T17:12:45.409Z,101176.16
2018-08-12T17:15:15.394Z,101177.20
2018-08-12T17:17:43.626Z,101172.52
2018-08-12T17:20:13.752Z,101173.50
2018-08-12T17:22:42.509Z,101167.93
2018-08-12T17:25:10.258Z,101166.27
2018-08-12T17:27:37.978Z,101158.40
2018-08-12T17:30:07.257Z,101160.26
2018-08-12T17:32:35.145Z,101159.44
2018-08-12T17:35:02.849Z,101150.30
2018-08-12T17:37:31.241Z,101146.48
2018-08-12T17:39:59.334Z,101141.84
2018-08-12T17:42:27.051Z,101146.20
2018-08-12T17:44:54.719Z,101147.64
2018-08-12T17:47:22.471Z,101147.69
2018-08-12T17:49:50.209Z,101146.97
2018-08-12T17:52:18.234Z,101141.80
2018-08-12T17:54:45.986Z,101121.29
2018-08-12T17:57:14.132Z,101137.20
2018-08-12T17:59:41.848Z,101136.00
2018-08-12T18:02:09.572Z,101139.09
2018-08-12T18:04:37.500Z,101143.50
2018-08-12T18:07:05.236Z,101137.88
2018-08-12T18:09:33.378Z,101135.77
2018-08-12T18:12:01.694Z,101129.61
2018-08-12T18:14:29.649Z,101124.27
2018-08-12T18:16:57.554Z,101098.95
2018-08-12T18:19:25.317Z,101130.00
2018-08-12T18:21:53.026Z,101132.73
2018-08-12T18:24:20.728Z,101133.19
2018-08-12T18:26:48.737Z,101131.98
2018-08-12T18:29:16.474Z,101130.26
2018-08-12T18:31:45.072Z,101128.99
2018-08-12T18:34:12.741Z,101128.20
2018-08-12T18:36:40.405Z,101123.37
2018-08-12T18:39:11.184Z,101129.19
2018-08-12T18:41:38.896Z,101126.13
2018-08-12T18:44:07.290Z,101121.77
2018-08-12T18:46:34.966Z,101120.50
2018-08-12T18:49:02.828Z,101117.85
2018-08-12T18:51:30.961Z,101116.59
2018-08-12T18:53:58.721Z,101120.16
2018-08-12T18:56:26.433Z,101121.96
2018-08-12T18:58:54.454Z,101120.22
2018-08-12T19:01:22.321Z,101118.95
2018-08-12T19:03:49.973Z,101118.55
2018-08-12T19:06:17.800Z,101120.36
2018-08-12T19:08:45.508Z,101111.16
2018-08-12T19:11:13.631Z,101118.61
2018-08-12T19:13:42.157Z,101117.83
2018-08-12T19:16:10.287Z,101118.33
2018-08-12T19:18:38.258Z,101117.00
2018-08-12T19:21:06.045Z,101113.12
2018-08-12T19:23:34.198Z,101113.97
2018-08-12T19:26:01.920Z,101113.52
2018-08-12T19:28:30.583Z,101111.33
2018-08-12T19:30:58.265Z,101110.05
2018-08-12T19:33:26.020Z,101107.41
2018-08-12T19:35:54.046Z,101111.37
2018-08-12T19:38:21.782Z,101109.66
2018-08-12T19:40:49.787Z,101108.83
2018-08-12T19:43:17.509Z,101107.08
2018-08-12T19:45:45.553Z,101079.55
2018-08-12T19:48:13.878Z,101102.27
2018-08-12T19:50:41.694Z,101104.48
2018-08-12T19:53:09.721Z,101105.41
2018-08-12T19:55:37.781Z,101097.97
2018-08-12T19:58:05.523Z,101096.65
2018-08-12T20:00:33.533Z,101104.09
2018-08-12T20:03:01.486Z,101091.86
2018-08-12T20:05:29.190Z,101092.34
2018-08-12T20:07:56.946Z,101091.92
2018-08-12T20:10:24.655Z,101091.92
2018-08-12T20:12:52.363Z,101091.02
2018-08-12T20:15:20.163Z,101085.31
2018-08-12T20:17:47.835Z,101081.83
2018-08-12T20:20:16.088Z,101080.08
2018-08-12T20:22:43.865Z,101077.05
2018-08-12T20:25:11.554Z,101077.09
2018-08-12T20:27:39.270Z,101070.49
2018-08-12T20:30:09.171Z,101066.14
2018-08-12T20:32:36.879Z,101063.98
2018-08-12T20:35:05.246Z,101058.21
2018-08-12T20:40:00.309Z,101063.55
2018-08-12T20:42:28.316Z,101054.78
2018-08-12T20:44:56.009Z,101055.23
2018-08-12T20:47:23.809Z,101054.30
2018-08-12T20:49:52.298Z,101054.84
2018-08-12T20:52:20.287Z,101056.16
2018-08-12T20:54:48.824Z,101053.03
2018-08-12T20:57:16.562Z,101050.92
2018-08-12T20:59:44.559Z,101050.00
2018-08-12T21:02:12.272Z,101054.44
2018-08-12T21:04:39.950Z,101047.84
2018-08-12T21:07:08.044Z,101047.89
2018-08-12T21:09:36.237Z,101043.87
2018-08-12T21:12:04.087Z,101045.70
2018-08-12T21:14:31.730Z,101043.98
2018-08-12T21:16:59.499Z,101043.11
2018-08-12T21:19:27.849Z,101038.76
2018-08-12T21:21:56.332Z,101047.08
2018-08-12T21:24:24.068Z,101038.36
2018-08-12T21:26:51.813Z,101040.53
2018-08-12T21:29:19.476Z,101032.60
2018-08-12T21:31:47.492Z,101033.92
2018-08-12T21:34:15.178Z,101030.88
2018-08-12T21:36:43.296Z,101037.97
2018-08-12T21:39:12.803Z,101029.17
2018-08-12T21:41:40.547Z,101024.81
2018-08-12T21:44:08.313Z,101027.85
2018-08-12T21:46:36.659Z,101026.98
2018-08-12T21:49:04.908Z,101025.20
2018-08-12T21:51:32.601Z,101025.66
2018-08-12T21:54:00.564Z,101023.49
2018-08-12T21:56:28.349Z,101023.94
2018-08-12T21:58:56.953Z,101016.89
2018-08-12T22:01:24.636Z,101018.21
2018-08-12T22:03:53.588Z,101025.27
2018-08-12T22:06:21.316Z,101013.82
2018-08-12T22:08:49.346Z,101010.28
2018-08-12T22:11:17.406Z,101016.89
2018-08-12T22:13:45.524Z,101016.47
2018-08-12T22:16:13.373Z,101009.86
2018-08-12T22:18:41.147Z,101004.67
2018-08-12T22:21:09.093Z,101006.83
2018-08-12T22:23:37.295Z,101000.70
2018-08-12T22:26:05.082Z,100996.31
2018-08-12T22:28:32.821Z,100999.83
2018-08-12T22:31:00.589Z,100998.95
2018-08-12T22:33:28.569Z,100995.00
2018-08-12T22:35:56.589Z,100994.16
2018-08-12T22:38:24.321Z,100989.32
2018-08-12T22:40:52.060Z,100987.61
2018-08-12T22:43:19.843Z,100989.80
2018-08-12T22:45:47.521Z,100988.93
2018-08-12T22:48:15.520Z,100987.22
2018-08-12T22:50:43.297Z,100994.66
2018-08-12T22:53:11.310Z,100993.34
2018-08-12T22:55:39.027Z,100992.95
2018-08-12T22:58:06.799Z,100987.22
2018-08-12T23:00:34.569Z,100988.98
2018-08-12T23:03:02.281Z,100984.62
2018-08-12T23:05:30.015Z,100982.83
2018-08-12T23:08:02.712Z,100985.08
2018-08-12T23:10:30.412Z,100982.01
2018-08-12T23:12:58.102Z,100975.41
2018-08-12T23:16:37.756Z,100973.21
2018-08-12T23:19:05.453Z,100972.42
2018-08-12T23:21:33.428Z,100964.56
2018-08-12T23:24:01.164Z,100963.63
2018-08-12T23:26:29.084Z,100960.98
2018-08-12T23:28:57.190Z,100957.51
2018-08-12T23:31:24.935Z,100959.28
2018-08-12T23:33:53.686Z,100960.15
2018-08-12T23:36:21.392Z,100950.42
2018-08-12T23:38:49.164Z,100945.20
2018-08-12T23:41:17.217Z,100943.43
2018-08-12T23:43:45.016Z,100941.23
2018-08-12T23:46:12.946Z,100939.52
2018-08-12T23:48:40.686Z,100936.49
2018-08-12T23:51:08.825Z,100931.59
2018-08-12T23:53:36.647Z,100925.48
2018-08-12T23:56:04.576Z,100926.31
2018-08-12T23:58:32.319Z,100925.92
